Time;durP1;ratioP1;P1;durP2;ratioP2;P2;SDS_P1;SDS_P2;PMS_P1;PMS_P2;Temp;Humidity;BMP_temperature;BMP_pressure;BME280_temperature;BME280_humidity;BME280_pressure;Samples;Min_cycle;Max_cycle;Signal;HPM_P1;HPM_P2
2022/06/30 00:00:14;;;;;;;;;;;;;;;21.74;65.42;97667.66;5108855;27;20003;-69
2022/06/30 00:02:46;;;;;;;;;;;;;;;21.66;66.01;97658.53;5104868;27;19927;-69
2022/06/30 00:05:19;;;;;;;;;;;;;;;21.78;65.42;97651.84;5104471;27;20014;-68
2022/06/30 00:07:47;;;;;;;;;;;;;;;21.71;65.73;97654.59;5102672;27;20038;-68
2022/06/30 00:10:16;;;;;;;;;;;;;;;21.73;65.48;97654.19;5102768;28;20164;-68
2022/06/30 00:12:44;;;;;;;;;;;;;;;21.81;65.27;97651.06;5107233;28;19919;-68
2022/06/30 00:15:12;;;;;;;;;;;;;;;21.77;65.66;97649.47;5104880;27;20000;-64
2022/06/30 00:17:40;;;;;;;;;;;;;;;21.70;65.38;97655.78;5106628;27;19953;-69
2022/06/30 00:20:10;;;;;;;;;;;;;;;21.60;66.00;97646.28;5107656;27;20328;-69
2022/06/30 00:22:40;;;;;;;;;;;;;;;21.69;66.03;97645.91;5112068;27;19927;-67
2022/06/30 00:25:08;;;;;;;;;;;;;;;21.53;66.29;97649.03;5106691;27;20157;-67
2022/06/30 00:27:36;;;;;;;;;;;;;;;21.52;66.39;97652.16;5110018;27;19935;-68
2022/06/30 00:30:05;;;;;;;;;;;;;;;21.50;66.25;97652.56;5107175;28;19977;-68
2022/06/30 00:32:32;;;;;;;;;;;;;;;21.63;65.84;97655.78;5107286;27;19926;-67
2022/06/30 00:35:01;;;;;;;;;;;;;;;21.58;66.09;97650.63;5106516;28;20371;-68
2022/06/30 00:37:29;;;;;;;;;;;;;;;21.37;66.65;97654.88;5110946;27;20570;-67
2022/06/30 00:39:59;;;;;;;;;;;;;;;21.42;66.50;97657.28;5107133;28;19946;-67
2022/06/30 00:42:27;;;;;;;;;;;;;;;21.37;66.78;97654.88;5104044;28;20376;-66
2022/06/30 00:45:21;;;;;;;;;;;;;;;21.35;66.98;97640.66;5074625;28;19973;-67
2022/06/30 00:47:49;;;;;;;;;;;;;;;21.29;67.49;97644.16;5105899;27;20031;-65
2022/06/30 00:50:18;;;;;;;;;;;;;;;21.28;67.42;97637.84;5124415;27;19923;-67
2022/06/30 00:52:45;;;;;;;;;;;;;;;21.25;67.56;97630.31;5096884;27;20292;-67
2022/06/30 00:55:15;;;;;;;;;;;;;;;21.26;67.78;97628.38;5097858;27;19935;-67
2022/06/30 00:57:44;;;;;;;;;;;;;;;21.24;67.90;97627.94;5098807;27;19941;-67
2022/06/30 01:00:12;;;;;;;;;;;;;;;21.25;67.89;97624.00;5101253;27;19925;-65
2022/06/30 01:02:41;;;;;;;;;;;;;;;21.21;67.71;97629.53;5095351;28;19993;-55
2022/06/30 01:05:09;;;;;;;;;;;;;;;21.21;68.04;97612.16;5106278;27;19967;-64
2022/06/30 01:07:37;;;;;;;;;;;;;;;21.30;67.62;97616.16;5102861;27;19931;-67
2022/06/30 01:12:52;;;;;;;;;;;;;;;21.22;67.95;97603.47;5113016;27;19920;-66
2022/06/30 01:15:21;;;;;;;;;;;;;;;21.19;68.08;97609.75;5111016;27;19930;-66
2022/06/30 01:17:50;;;;;;;;;;;;;;;21.21;67.90;97607.44;5109753;27;19919;-66
2022/06/30 01:20:20;;;;;;;;;;;;;;;21.18;67.90;97608.97;5108178;27;19920;-66
2022/06/30 01:22:50;;;;;;;;;;;;;;;21.17;68.06;97606.63;5109164;27;19920;-67
2022/06/30 01:25:19;;;;;;;;;;;;;;;21.14;68.31;97602.63;5104945;27;19969;-67
2022/06/30 01:28:11;;;;;;;;;;;;;;;21.09;68.41;97599.47;5105186;27;20059;-65
2022/06/30 01:30:41;;;;;;;;;;;;;;;21.11;68.16;97605.41;5109223;27;19923;-66
2022/06/30 01:33:09;;;;;;;;;;;;;;;21.10;68.35;97601.06;5101521;27;19942;-64
2022/06/30 01:35:37;;;;;;;;;;;;;;;21.10;68.38;97612.13;5106021;27;19924;-67
2022/06/30 01:38:07;;;;;;;;;;;;;;;21.17;67.96;97601.09;5103864;27;20279;-66
2022/06/30 01:40:35;;;;;;;;;;;;;;;21.06;68.61;97603.81;5117691;27;19931;-66
2022/06/30 01:43:05;;;;;;;;;;;;;;;21.04;68.76;97603.41;5106040;28;19927;-67
2022/06/30 01:45:32;;;;;;;;;;;;;;;21.10;68.43;97606.59;5103764;28;19945;-66
2022/06/30 01:48:03;;;;;;;;;;;;;;;21.14;68.24;97612.91;5110049;27;20288;-66
2022/06/30 01:50:32;;;;;;;;;;;;;;;21.06;68.50;97612.09;5090977;28;20383;-67
2022/06/30 01:53:00;;;;;;;;;;;;;;;21.07;68.43;97607.34;5095979;27;19972;-66
2022/06/30 01:55:29;;;;;;;;;;;;;;;21.22;67.81;97603.47;5106108;28;20011;-67
2022/06/30 01:57:57;;;;;;;;;;;;;;;21.05;68.41;97609.72;5099459;27;19923;-66
2022/06/30 02:00:26;;;;;;;;;;;;;;;20.98;68.66;97609.66;5105269;28;19920;-67
2022/06/30 02:02:54;;;;;;;;;;;;;;;21.00;68.49;97607.34;5103709;28;19920;-66
2022/06/30 02:05:23;;;;;;;;;;;;;;;21.10;68.10;97612.13;5102503;28;20023;-66
2022/06/30 02:07:51;;;;;;;;;;;;;;;21.04;67.90;97608.94;5104748;28;19924;-67
2022/06/30 02:10:20;;;;;;;;;;;;;;;21.07;68.06;97604.59;5098860;28;19931;-63
2022/06/30 02:12:51;;;;;;;;;;;;;;;21.06;68.01;97612.09;5105991;28;19968;-66
2022/06/30 02:15:23;;;;;;;;;;;;;;;21.00;68.05;97608.13;5098790;28;20014;-65
2022/06/30 02:17:56;;;;;;;;;;;;;;;21.15;67.62;97614.50;5099065;28;20443;-67
2022/06/30 02:20:24;;;;;;;;;;;;;;;21.16;67.54;97607.78;5106514;27;19933;-64
2022/06/30 02:22:53;;;;;;;;;;;;;;;20.98;68.04;97604.16;5110432;27;20301;-53
2022/06/30 02:25:23;;;;;;;;;;;;;;;20.91;68.31;97611.22;5106858;28;19919;-62
2022/06/30 02:28:01;;;;;;;;;;;;;;;20.82;68.66;97619.06;5110867;27;19920;-64
2022/06/30 02:30:30;;;;;;;;;;;;;;;20.93;68.46;97619.13;5116663;27;20333;-66
2022/06/30 02:33:00;;;;;;;;;;;;;;;20.67;69.44;97617.41;5105598;28;19919;-66
2022/06/30 02:35:28;;;;;;;;;;;;;;;20.71;69.14;97617.41;5114360;27;19935;-66
2022/06/30 02:37:57;;;;;;;;;;;;;;;20.76;68.79;97625.34;5120067;27;20346;-66
2022/06/30 02:40:25;;;;;;;;;;;;;;;20.82;68.77;97619.06;5120609;27;19920;-66
2022/06/30 02:42:58;;;;;;;;;;;;;;;20.85;68.71;97623.81;5111704;27;19924;-63
2022/06/30 02:45:27;;;;;;;;;;;;;;;20.76;68.95;97622.56;5109781;27;20405;-68
2022/06/30 02:47:58;;;;;;;;;;;;;;;20.67;68.96;97622.94;5107058;27;20382;-66
2022/06/30 02:50:27;;;;;;;;;;;;;;;20.71;69.20;97617.41;5106162;27;19963;-66
2022/06/30 02:52:55;;;;;;;;;;;;;;;20.76;68.46;97622.56;5110861;27;19923;-67
2022/06/30 02:55:23;;;;;;;;;;;;;;;20.60;68.98;97625.63;5114339;27;19927;-52
2022/06/30 02:57:51;;;;;;;;;;;;;;;20.62;69.07;97632.38;5082155;28;19931;-65
2022/06/30 03:00:19;;;;;;;;;;;;;;;20.66;69.04;97629.59;5113049;27;19988;-64
2022/06/30 03:02:48;;;;;;;;;;;;;;;20.54;69.14;97633.47;5110883;27;19927;-67
2022/06/30 03:05:16;;;;;;;;;;;;;;;20.41;69.45;97632.97;5109622;27;20017;-66
2022/06/30 03:07:44;;;;;;;;;;;;;;;20.40;69.25;97636.91;5080771;28;19926;-66
2022/06/30 03:10:12;;;;;;;;;;;;;;;20.27;69.89;97635.63;5104574;27;20163;-66
2022/06/30 03:12:40;;;;;;;;;;;;;;;20.25;69.86;97631.66;5107025;27;19923;-66
2022/06/30 03:15:08;;;;;;;;;;;;;;;20.29;69.69;97635.22;5107508;28;19940;-67
2022/06/30 03:17:37;;;;;;;;;;;;;;;20.29;69.62;97641.53;5102690;28;20266;-67
2022/06/30 03:20:07;;;;;;;;;;;;;;;20.25;69.87;97637.97;5107850;28;19978;-65
2022/06/30 03:22:35;;;;;;;;;;;;;;;20.28;69.90;97644.69;5123944;27;19970;-65
2022/06/30 03:25:03;;;;;;;;;;;;;;;20.27;69.88;97641.13;5104882;27;19946;-67
2022/06/30 03:27:31;;;;;;;;;;;;;;;20.35;69.47;97640.03;5113380;27;19996;-66
2022/06/30 03:30:00;;;;;;;;;;;;;;;20.40;69.59;97638.88;5119850;27;19931;-66
2022/06/30 03:33:16;;;;;;;;;;;;;;;20.38;69.53;97642.00;5108068;27;19927;-66
2022/06/30 03:35:46;;;;;;;;;;;;;;;20.44;69.55;97641.66;5101448;27;19930;-66
2022/06/30 03:38:14;;;;;;;;;;;;;;;20.60;68.81;97645.75;5105230;28;19939;-61
2022/06/30 03:40:42;;;;;;;;;;;;;;;20.48;69.23;97639.75;5094443;28;20163;-68
2022/06/30 03:43:10;;;;;;;;;;;;;;;20.39;69.46;97643.59;5104346;28;20305;-67
2022/06/30 03:45:38;;;;;;;;;;;;;;;20.38;69.61;97644.75;5099427;27;19923;-67
2022/06/30 03:48:07;;;;;;;;;;;;;;;20.34;69.98;97643.94;5106360;27;19924;-65
2022/06/30 03:50:35;;;;;;;;;;;;;;;20.41;69.73;97638.50;5098449;28;19924;-63
2022/06/30 03:53:04;;;;;;;;;;;;;;;20.47;69.40;97644.47;5098158;28;20336;-65
2022/06/30 03:55:33;;;;;;;;;;;;;;;20.46;69.22;97648.41;5108299;28;19997;-67
2022/06/30 03:58:01;;;;;;;;;;;;;;;20.33;69.89;97644.31;5100845;28;19931;-66
2022/06/30 04:00:31;;;;;;;;;;;;;;;20.23;70.28;97642.28;5092952;28;20332;-67
2022/06/30 04:02:59;;;;;;;;;;;;;;;20.20;70.33;97649.34;5093078;28;19989;-67
2022/06/30 04:05:27;;;;;;;;;;;;;;;20.34;69.67;97643.16;5106978;28;19924;-65
2022/06/30 04:07:55;;;;;;;;;;;;;;;19.93;71.43;97656.19;5099705;28;19999;-68
2022/06/30 04:10:24;;;;;;;;;;;;;;;20.11;70.58;97649.66;5099995;28;19946;-57
2022/06/30 04:12:52;;;;;;;;;;;;;;;20.21;70.12;97655.66;5106152;28;19959;-55
2022/06/30 04:15:21;;;;;;;;;;;;;;;20.25;70.21;97662.00;5104669;28;20015;-64
2022/06/30 04:17:49;;;;;;;;;;;;;;;20.25;70.12;97650.97;5104468;27;20252;-64
2022/06/30 04:20:17;;;;;;;;;;;;;;;20.30;69.96;97654.16;5109361;27;20371;-67
2022/06/30 04:22:47;;;;;;;;;;;;;;;20.35;69.80;97656.59;5103753;27;19939;-66
2022/06/30 04:25:16;;;;;;;;;;;;;;;20.37;69.92;97659.75;5103854;27;19920;-66
2022/06/30 04:27:46;;;;;;;;;;;;;;;20.51;69.33;97664.63;5101648;28;20466;-67
2022/06/30 04:30:14;;;;;;;;;;;;;;;20.57;69.07;97663.09;5119636;27;19942;-67
2022/06/30 04:32:42;;;;;;;;;;;;;;;20.66;68.52;97655.25;5106268;27;20113;-67
2022/06/30 04:35:11;;;;;;;;;;;;;;;20.70;68.36;97658.03;5108993;27;19988;-55
2022/06/30 04:37:39;;;;;;;;;;;;;;;20.56;68.98;97660.69;5118342;27;20391;-65
2022/06/30 04:42:55;;;;;;;;;;;;;;;20.44;69.42;97663.72;5103584;27;19968;-64
2022/06/30 04:45:23;;;;;;;;;;;;;;;20.07;70.74;97662.63;5113403;27;19923;-56
2022/06/30 04:47:51;;;;;;;;;;;;;;;20.29;70.29;97660.84;5101685;27;20310;-66
2022/06/30 04:50:19;;;;;;;;;;;;;;;20.27;70.39;97656.88;5118710;27;19928;-67
2022/06/30 04:52:47;;;;;;;;;;;;;;;20.32;70.11;97651.03;5098995;27;19919;-66
2022/06/30 04:55:15;;;;;;;;;;;;;;;20.49;69.65;97655.13;5095903;28;20032;-66
2022/06/30 04:57:43;;;;;;;;;;;;;;;20.48;69.51;97654.34;5101361;28;19985;-64
2022/06/30 05:00:13;;;;;;;;;;;;;;;20.48;69.46;97653.53;5110271;27;20324;-68
2022/06/30 05:02:41;;;;;;;;;;;;;;;20.59;69.13;97659.94;5107210;27;19924;-67
2022/06/30 05:05:10;;;;;;;;;;;;;;;20.61;68.85;97647.34;5095135;28;19981;-53
2022/06/30 05:07:39;;;;;;;;;;;;;;;20.66;68.74;97655.25;5095403;28;20003;-67
2022/06/30 05:10:07;;;;;;;;;;;;;;;20.85;68.35;97645.91;5101616;28;19920;-67
2022/06/30 05:12:35;;;;;;;;;;;;;;;20.81;68.34;97658.88;5099202;27;19920;-66
2022/06/30 05:15:04;;;;;;;;;;;;;;;20.89;68.05;97657.78;5099169;28;19939;-67
2022/06/30 05:17:34;;;;;;;;;;;;;;;20.76;68.71;97659.25;5105158;28;19919;-67
2022/06/30 05:20:03;;;;;;;;;;;;;;;20.67;69.13;97656.06;5104898;27;19919;-64
2022/06/30 05:22:31;;;;;;;;;;;;;;;20.80;68.69;97660.06;5090190;27;19919;-67
2022/06/30 05:27:45;;;;;;;;;;;;;;;21.00;67.95;97657.03;5100059;28;19923;-61
2022/06/30 05:30:13;;;;;;;;;;;;;;;20.99;68.37;97666.50;5105045;27;19928;-67
2022/06/30 05:32:43;;;;;;;;;;;;;;;21.07;67.84;97668.13;5104194;28;19928;-67
2022/06/30 05:35:10;;;;;;;;;;;;;;;21.05;67.54;97664.97;5099403;28;19935;-65
2022/06/30 05:37:39;;;;;;;;;;;;;;;21.26;67.21;97667.84;5106345;27;19983;-68
2022/06/30 05:40:07;;;;;;;;;;;;;;;21.29;67.24;97663.50;5106285;27;20484;-67
2022/06/30 05:42:36;;;;;;;;;;;;;;;21.30;67.28;97665.09;5096445;27;19973;-67
2022/06/30 05:45:04;;;;;;;;;;;;;;;21.29;67.29;97664.28;5094428;28;20022;-66
2022/06/30 05:47:32;;;;;;;;;;;;;;;21.45;66.77;97667.53;5105291;28;19920;-67
2022/06/30 05:50:01;;;;;;;;;;;;;;;21.49;66.49;97661.25;5097630;27;19924;-67
2022/06/30 05:52:54;;;;;;;;;;;;;;;21.54;66.45;97655.34;5104742;28;19927;-67
2022/06/30 05:55:22;;;;;;;;;;;;;;;21.51;66.70;97658.88;5102666;28;20028;-67
2022/06/30 05:57:51;;;;;;;;;;;;;;;21.49;66.97;97655.72;5104655;28;19973;-64
2022/06/30 06:00:19;;;;;;;;;;;;;;;21.51;66.85;97653.34;5102289;28;19973;-67
2022/06/30 06:02:47;;;;;;;;;;;;;;;21.55;66.75;97649.41;5097606;28;19932;-65
2022/06/30 06:05:22;;;;;;;;;;;;;;;21.63;66.18;97650.25;5094756;28;19920;-67
2022/06/30 06:07:50;;;;;;;;;;;;;;;21.63;66.17;97656.56;5100541;28;19974;-66
2022/06/30 06:10:18;;;;;;;;;;;;;;;21.67;66.21;97656.56;5098092;28;19920;-65
2022/06/30 06:12:46;;;;;;;;;;;;;;;21.66;65.81;97660.50;5100773;28;19920;-67
2022/06/30 06:15:34;;;;;;;;;;;;;;;21.64;66.60;97658.13;5100612;28;20941;-66
2022/06/30 06:18:07;;;;;;;;;;;;;;;21.64;66.55;97651.81;5098695;28;19924;-65
2022/06/30 06:20:37;;;;;;;;;;;;;;;21.84;65.26;97650.28;5100099;28;19928;-68
2022/06/30 06:23:08;;;;;;;;;;;;;;;21.91;65.41;97652.28;5103915;28;19927;-67
2022/06/30 06:25:36;;;;;;;;;;;;;;;21.91;65.59;97649.50;5096289;28;19919;-68
2022/06/30 06:30:50;;;;;;;;;;;;;;;21.75;65.22;97647.09;5098999;28;19926;-69
2022/06/30 06:33:19;;;;;;;;;;;;;;;22.03;64.78;97648.34;5093892;28;19920;-67
2022/06/30 06:35:49;;;;;;;;;;;;;;;22.14;64.55;97646.41;5096881;28;19934;-68
2022/06/30 06:38:18;;;;;;;;;;;;;;;;;;5098248;28;19920;-65
2022/06/30 06:40:46;;;;;;;;;;;;;;;22.20;64.43;97640.06;5103112;28;20348;-68
2022/06/30 06:43:13;;;;;;;;;;;;;;;22.37;63.65;97638.50;5095585;28;19934;-59
2022/06/30 06:45:42;;;;;;;;;;;;;;;22.35;63.69;97634.53;5094381;28;20182;-69
2022/06/30 06:48:13;;;;;;;;;;;;;;;22.58;62.89;97626.59;5097235;28;20093;-69
2022/06/30 06:50:42;;;;;;;;;;;;;;;22.33;63.36;97631.41;5102382;28;20413;-68
2022/06/30 06:53:11;;;;;;;;;;;;;;;22.56;63.54;97629.00;5101891;28;19988;-59
2022/06/30 06:55:39;;;;;;;;;;;;;;;22.68;62.47;97622.25;5104101;28;19919;-65
2022/06/30 06:58:08;;;;;;;;;;;;;;;22.83;62.46;97634.88;5100418;28;19939;-69
2022/06/30 07:00:36;;;;;;;;;;;;;;;22.92;61.71;97628.97;5100775;28;20327;-68
2022/06/30 07:03:03;;;;;;;;;;;;;;;23.05;61.72;97626.53;5099442;28;20288;-69
2022/06/30 07:05:31;;;;;;;;;;;;;;;23.13;61.76;97633.66;5103148;28;19954;-64
2022/06/30 07:08:00;;;;;;;;;;;;;;;23.19;61.23;97629.28;5107567;28;20216;-68
2022/06/30 07:10:29;;;;;;;;;;;;;;;23.26;60.96;97629.22;5106755;28;19924;-68
2022/06/30 07:12:58;;;;;;;;;;;;;;;23.23;60.85;97622.53;5109981;27;19926;-68
2022/06/30 07:15:25;;;;;;;;;;;;;;;23.31;60.68;97625.25;5105739;28;19985;-68
2022/06/30 07:17:54;;;;;;;;;;;;;;;23.34;60.79;97622.47;5097675;28;19959;-67
2022/06/30 07:20:22;;;;;;;;;;;;;;;23.41;60.31;97627.97;5109288;28;19920;-68
2022/06/30 07:25:57;;;;;;;;;;;;;;;23.57;59.78;97623.94;5097683;28;19942;-62
2022/06/30 07:28:25;;;;;;;;;;;;;;;23.62;59.47;97620.75;5107532;28;19920;-68
2022/06/30 07:31:15;;;;;;;;;;;;;;;23.71;59.27;97619.16;5100777;28;20452;-68
2022/06/30 07:33:44;;;;;;;;;;;;;;;23.74;59.32;97620.31;5106487;28;19946;-69
2022/06/30 07:36:13;;;;;;;;;;;;;;;23.84;58.14;97615.91;5101840;28;20397;-69
2022/06/30 07:38:41;;;;;;;;;;;;;;;23.90;57.75;97626.16;5110841;27;19919;-68
2022/06/30 07:41:15;;;;;;;;;;;;;;;23.92;57.58;97623.78;5105772;28;20367;-69
2022/06/30 07:43:43;;;;;;;;;;;;;;;23.92;58.52;97626.56;5108385;28;19950;-68
2022/06/30 07:46:12;;;;;;;;;;;;;;;24.10;57.94;97631.19;5101265;28;19925;-66
2022/06/30 07:48:40;;;;;;;;;;;;;;;24.14;57.54;97624.41;5104044;27;19920;-69
2022/06/30 07:51:09;;;;;;;;;;;;;;;24.14;57.57;97626.41;5107774;28;19980;-70
2022/06/30 07:53:37;;;;;;;;;;;;;;;24.13;56.81;97622.84;5101513;28;20403;-70
2022/06/30 07:56:10;;;;;;;;;;;;;;;24.22;56.78;97619.56;5106998;27;19954;-69
2022/06/30 07:58:39;;;;;;;;;;;;;;;24.29;56.78;97620.31;5105000;27;20018;-66
2022/06/30 08:01:08;;;;;;;;;;;;;;;24.41;56.19;97623.81;5108530;27;19927;-69
2022/06/30 08:03:42;;;;;;;;;;;;;;;24.38;56.25;97616.31;5110530;27;20026;-71
2022/06/30 08:06:11;;;;;;;;;;;;;;;24.56;55.20;97617.75;5106097;28;20332;-61
2022/06/30 08:08:40;;;;;;;;;;;;;;;24.50;54.88;97610.25;5100928;27;19924;-71
2022/06/30 08:11:08;;;;;;;;;;;;;;;24.79;53.89;97608.75;5098676;27;20010;-71
2022/06/30 08:13:36;;;;;;;;;;;;;;;24.96;53.89;97617.31;5101705;28;19920;-71
2022/06/30 08:16:08;;;;;;;;;;;;;;;24.88;54.42;97613.84;5112733;27;20011;-70
2022/06/30 08:18:36;;;;;;;;;;;;;;;24.93;54.42;97613.41;5106974;28;19934;-71
2022/06/30 08:21:07;;;;;;;;;;;;;;;24.99;54.32;97606.19;5101741;28;19920;-71
2022/06/30 08:23:36;;;;;;;;;;;;;;;25.22;53.42;97610.31;5101995;27;20031;-71
2022/06/30 08:26:07;;;;;;;;;;;;;;;25.34;53.54;97618.09;5104560;27;20011;-67
2022/06/30 08:28:36;;;;;;;;;;;;;;;25.24;53.06;97605.88;5107415;28;20002;-69
2022/06/30 08:31:07;;;;;;;;;;;;;;;25.37;52.71;97608.94;5104589;27;20248;-69
2022/06/30 08:33:37;;;;;;;;;;;;;;;25.30;52.11;97603.44;5104873;28;19923;-72
2022/06/30 08:36:08;;;;;;;;;;;;;;;25.47;52.19;97608.00;5108095;27;19985;-70
2022/06/30 08:38:36;;;;;;;;;;;;;;;25.54;50.99;97601.56;5117519;27;19919;-70
2022/06/30 08:44:15;;;;;;;;;;;;;;;25.46;51.32;97603.66;5106192;28;19998;-72
2022/06/30 08:46:43;;;;;;;;;;;;;;;25.44;50.03;97602.47;5101676;28;19954;-65
2022/06/30 08:49:12;;;;;;;;;;;;;;;25.55;50.48;97603.13;5100211;27;19955;-72
2022/06/30 08:51:40;;;;;;;;;;;;;;;25.57;50.75;97601.50;5094573;28;20336;-60
2022/06/30 08:54:08;;;;;;;;;;;;;;;25.40;51.41;97601.72;5107039;27;19923;-72
2022/06/30 08:56:36;;;;;;;;;;;;;;;25.28;51.05;97598.31;5108598;27;19980;-72
2022/06/30 08:59:05;;;;;;;;;;;;;;;25.24;51.45;97599.53;5103723;27;20014;-68
2022/06/30 09:01:33;;;;;;;;;;;;;;;25.23;51.26;97592.41;5099665;27;19931;-72
2022/06/30 09:04:01;;;;;;;;;;;;;;;25.42;50.76;97589.00;5103860;28;20331;-71
2022/06/30 09:06:31;;;;;;;;;;;;;;;25.61;49.15;97591.09;5101647;27;20117;-70
2022/06/30 09:09:04;;;;;;;;;;;;;;;25.78;48.57;97594.06;5108938;27;19923;-73
2022/06/30 09:11:44;;;;;;;;;;;;;;;25.71;49.44;97589.38;5113692;27;19920;-73
2022/06/30 09:14:35;;;;;;;;;;;;;;;25.75;50.00;97594.94;5101000;28;19959;-66
2022/06/30 09:17:29;;;;;;;;;;;;;;;25.98;46.94;97586.59;5101877;28;20018;-71
2022/06/30 09:20:01;;;;;;;;;;;;;;;26.06;46.34;97588.09;5095689;28;19931;-71
2022/06/30 09:22:31;;;;;;;;;;;;;;;26.13;46.21;97587.19;5089504;28;20268;-68
2022/06/30 09:25:00;;;;;;;;;;;;;;;26.12;46.11;97583.59;5101399;28;19924;-73
2022/06/30 09:27:30;;;;;;;;;;;;;;;26.13;47.07;97579.59;5101848;28;20366;-73
2022/06/30 09:30:02;;;;;;;;;;;;;;;26.16;47.33;97575.22;5106004;28;19931;-71
2022/06/30 09:32:48;;;;;;;;;;;;;;;26.17;47.39;97576.00;5103063;28;20389;-72
2022/06/30 09:35:41;;;;;;;;;;;;;;;26.25;46.65;97569.84;5095867;28;19935;-66
2022/06/30 09:38:12;;;;;;;;;;;;;;;26.28;46.55;97573.81;5099627;28;20022;-71
2022/06/30 09:41:00;;;;;;;;;;;;;;;26.07;46.71;97575.72;5106717;27;20482;-73
2022/06/30 09:43:31;;;;;;;;;;;;;;;25.90;46.40;97571.25;5093563;28;19981;-69
2022/06/30 09:45:59;;;;;;;;;;;;;;;26.16;44.89;97572.44;5097590;28;19951;-73
2022/06/30 09:48:27;;;;;;;;;;;;;;;26.27;45.62;97566.66;5099897;28;19920;-73
2022/06/30 09:50:58;;;;;;;;;;;;;;;26.21;45.35;97562.81;5083983;28;20006;-72
2022/06/30 09:53:28;;;;;;;;;;;;;;;26.43;44.95;97554.88;5091159;28;20349;-74
2022/06/30 09:55:56;;;;;;;;;;;;;;;26.42;44.73;97558.88;5100673;27;19942;-71
2022/06/30 09:58:36;;;;;;;;;;;;;;;26.53;44.93;97563.06;5092604;28;19924;-71
2022/06/30 10:01:07;;;;;;;;;;;;;;;26.72;43.70;97561.50;5098191;28;20262;-71
2022/06/30 10:06:28;;;;;;;;;;;;;;;26.40;45.76;97550.91;5093111;28;19923;-74
2022/06/30 10:08:59;;;;;;;;;;;;;;;26.44;43.86;97550.88;5097632;28;19973;-64
2022/06/30 10:14:18;;;;;;;;;;;;;;;26.28;44.65;97546.75;5093144;28;19936;-73
2022/06/30 10:16:47;;;;;;;;;;;;;;;26.31;44.88;97543.13;5098871;28;19928;-72
2022/06/30 10:19:15;;;;;;;;;;;;;;;26.73;43.71;97543.56;5098313;28;20283;-70
2022/06/30 10:21:43;;;;;;;;;;;;;;;26.76;43.16;97544.72;5097303;28;19924;-72
2022/06/30 10:24:14;;;;;;;;;;;;;;;27.00;42.95;97543.41;5089153;28;20458;-71
2022/06/30 10:29:54;;;;;;;;;;;;;;;27.33;41.77;97538.78;5095836;28;20382;-71
2022/06/30 10:32:43;;;;;;;;;;;;;;;27.51;40.28;97534.78;5098475;28;19920;-63
2022/06/30 10:35:15;;;;;;;;;;;;;;;27.59;41.55;97534.22;5090226;28;20023;-70
2022/06/30 10:37:46;;;;;;;;;;;;;;;27.74;39.95;97533.88;5099177;28;19920;-69
2022/06/30 10:40:27;;;;;;;;;;;;;;;27.72;40.61;97534.34;5096743;28;19920;-69
2022/06/30 10:42:57;;;;;;;6.78;3.10;;;;;;;27.51;40.10;97526.44;5095306;28;19932;-72
2022/06/30 10:45:35;;;;;;;;;;;;;;;27.54;40.56;97542.28;5103314;28;20499;-59
2022/06/30 10:48:04;;;;;;;;;;;;;;;27.74;38.58;97528.31;5101034;28;19998;-68
2022/06/30 10:50:34;;;;;;;;;;;;;;;27.79;38.94;97530.59;5098870;28;19923;-71
2022/06/30 10:53:02;;;;;;;6.38;3.30;;;;;;;27.88;39.96;97527.97;5100906;28;20422;-71
2022/06/30 10:55:44;;;;;;;4.20;2.80;;;;;;;27.91;40.51;97522.31;5073682;28;20475;-65
2022/06/30 10:58:13;;;;;;;6.15;3.50;;;;;;;28.01;39.97;97514.09;5099028;28;20661;-71
2022/06/30 11:00:46;;;;;;;5.28;3.30;;;;;;;28.12;40.35;97518.19;5103744;28;20515;-68
2022/06/30 11:04:00;;;;;;;5.63;3.00;;;;;;;28.15;39.74;97519.31;5092327;28;20418;-71
2022/06/30 11:06:50;;;;;;;;;;;;;;;27.85;39.49;97506.50;5090367;28;20055;-71
2022/06/30 11:09:19;;;;;;;;;;;;;;;27.92;39.97;97509.13;5102883;28;19920;-69
2022/06/30 11:11:49;;;;;;;;;;;;;;;28.03;40.04;97506.84;5104109;27;19937;-66
2022/06/30 11:14:25;;;;;;;;;;;;;;;28.30;39.21;97500.19;5100655;27;19916;-70
2022/06/30 11:16:53;;;;;;;;;;;;;;;28.00;38.77;97501.34;5103301;28;19973;-59
2022/06/30 11:19:23;;;;;;;;;;;;;;;27.81;40.07;97501.03;5105155;28;19951;-71
2022/06/30 11:21:51;;;;;;;;;;;;;;;28.03;39.47;97492.91;5096691;28;19970;-66
2022/06/30 11:24:21;;;;;;;;;;;;;;;28.08;39.94;97497.97;5102277;28;19931;-67
2022/06/30 11:29:42;;;;;;;;;;;;;;;28.50;37.68;97494.47;5102787;28;20007;-71
2022/06/30 11:32:14;;;;;;;;;;;;;;;28.26;38.38;97491.91;5104464;28;20082;-65
2022/06/30 11:35:08;;;;;;;;;;;;;;;28.22;38.14;97496.00;5099793;28;20072;-70
2022/06/30 11:37:36;;;;;;;;;;;;;;;28.38;37.93;97487.63;5101245;28;20020;-60
2022/06/30 11:40:04;;;;;;;;;;;;;;;28.51;36.88;97485.69;5091205;28;20003;-63
2022/06/30 11:42:34;;;;;;;;;;;;;;;28.40;37.35;97485.19;5101391;28;20030;-67
2022/06/30 11:45:02;;;;;;;;;;;;;;;28.44;37.90;97483.06;5105194;28;19916;-70
2022/06/30 11:47:30;;;;;;;;;;;;;;;28.67;38.23;97477.22;5102201;28;19924;-69
2022/06/30 11:49:59;;;;;;;;;;;;;;;28.66;36.25;97486.84;5097786;28;19915;-70
2022/06/30 11:52:51;;;;;;;;;;;;;;;28.80;36.82;97480.06;5104600;27;20022;-67
2022/06/30 11:55:20;;;;;;;;;;;;;;;28.78;36.58;97473.34;5099329;28;19987;-70
2022/06/30 11:57:50;;;;;;;;;;;;;;;28.87;37.34;97477.06;5097221;28;19916;-69
2022/06/30 12:00:20;;;;;;;;;;;;;;;29.03;36.81;97469.84;5083687;28;20020;-69
2022/06/30 12:02:48;;;;;;;;;;;;;;;28.99;37.18;97469.97;5104735;28;20019;-71
2022/06/30 12:05:17;;;;;;;;;;;;;;;28.90;36.25;97480.97;5103261;28;20192;-71
2022/06/30 12:07:46;;;;;;;;;;;;;;;28.94;36.51;97462.91;5105687;27;20062;-70
2022/06/30 12:10:14;;;;;;;;;;;;;;;28.90;36.68;97464.97;5105062;28;20278;-69
2022/06/30 12:12:42;;;;;;;;;;;;;;;28.83;36.87;97456.81;5103317;28;20138;-66
2022/06/30 12:15:14;;;;;;;;;;;;;;;28.62;37.57;97451.84;5105303;28;19938;-69
2022/06/30 12:17:44;;;;;;;;;;;;;;;28.49;36.63;97457.38;5085677;28;20378;-71
2022/06/30 12:20:13;;;;;;;;;;;;;;;28.61;36.84;97456.66;5099436;27;20244;-69
2022/06/30 12:22:43;;;;;;;;;;;;;;;28.61;36.86;97450.28;5105555;27;19920;-70
2022/06/30 12:25:11;;;;;;;;;;;;;;;28.58;36.86;97451.94;5102979;28;19958;-67
2022/06/30 12:27:41;;;;;;;;;;;;;;;28.69;37.74;97458.00;5107022;28;19968;-71
2022/06/30 12:30:10;;;;;;;;;;;;;;;29.09;36.76;97454.88;5106215;28;19915;-50
2022/06/30 12:32:39;;;;;;;;;;;;;;;29.01;36.85;97450.72;5104511;28;19934;-66
2022/06/30 12:35:08;;;;;;;;;;;;;;;29.00;36.50;97448.38;5104498;27;19976;-69
2022/06/30 12:37:38;;;;;;;;;;;;;;;29.05;36.74;97451.38;5101125;28;19922;-57
2022/06/30 12:40:07;;;;;;;;;;;;;;;29.25;36.74;97447.63;5101147;27;19955;-67
2022/06/30 12:42:42;;;;;;;;;;;;;;;29.16;37.12;97440.66;5107148;28;19927;-68
2022/06/30 12:45:29;;;;;;;;;;;;;;;29.06;36.50;97441.78;5099819;28;20000;-69
2022/06/30 12:47:58;;;;;;;;;;;;;;;29.04;37.39;97449.06;5103675;27;20193;-69
2022/06/30 12:50:27;;;;;;;;;;;;;;;28.81;37.74;97448.06;5094105;27;19953;-66
2022/06/30 12:52:55;;;;;;;;;;;;;;;28.53;37.51;97446.09;5102210;28;19961;-69
2022/06/30 12:55:23;;;;;;;;;;;;;;;28.41;37.48;97442.81;5105470;28;20263;-53
2022/06/30 12:57:53;;;;;;;;;;;;;;;28.38;37.56;97437.31;5107918;27;20019;-66
2022/06/30 13:00:21;;;;;;;;;;;;;;;28.35;37.39;97438.22;5092973;28;19920;-66
2022/06/30 13:02:50;;;;;;;;;;;;;;;28.53;37.67;97427.31;5098775;28;19915;-69
2022/06/30 13:05:19;;;;;;;;;;;;;;;28.65;37.19;97432.16;5110741;27;20256;-68
2022/06/30 13:07:54;;;;;;;;;;;;;;;28.68;37.93;97428.47;5099298;27;19930;-68
2022/06/30 13:11:04;;;;;;;;;;;;;;;28.52;37.14;97419.38;5098793;27;19916;-68
2022/06/30 13:13:12;;;;;;;;;;;;;;;28.49;37.62;97421.03;5102645;28;20136;-69
2022/06/30 13:15:40;;;;;;;;;;;;;;;28.73;36.29;97412.41;5101519;28;19968;-67
2022/06/30 13:18:08;;;;;;;;;;;;;;;28.80;36.94;97418.56;5093482;27;19915;-68
2022/06/30 13:20:38;;;;;;;;;;;;;;;28.95;36.08;97418.94;5103279;28;19915;-68
2022/06/30 13:23:06;;;;;;;;;;;;;;;28.73;35.08;97418.00;5094232;27;19946;-69
2022/06/30 13:25:34;;;;;;;;;;;;;;;28.74;34.94;97413.97;5107202;27;19919;-68
2022/06/30 13:28:03;;;;;;;;;;;;;;;28.76;35.35;97403.09;5073893;28;19989;-70
2022/06/30 13:30:36;;;;;;;;;;;;;;;28.69;36.14;97410.47;5095989;28;19989;-60